sensor_id;sensor_type;location;lat;lon;timestamp;pressure;altitude;pressure_sealevel;temperature;humidity
33913;BME280;20200;52.084;5.224;2023-01-20T00:01:18;151001.0;;;8.85;52.58
33913;BME280;20200;52.084;5.224;2023-01-20T00:02:55;150969.0;;;8.73;52.96
33913;BME280;20200;52.084;5.224;2023-01-20T00:06:08;151017.0;;;8.92;52.56
33913;BME280;20200;52.084;5.224;2023-01-20T00:07:44;151042.0;;;9.02;52.35
33913;BME280;20200;52.084;5.224;2023-01-20T00:09:21;151049.0;;;9.06;52.35
33913;BME280;20200;52.084;5.224;2023-01-20T00:10:58;151075.0;;;9.15;52.18
33913;BME280;20200;52.084;5.224;2023-01-20T00:14:14;151032.0;;;8.98;52.61
33913;BME280;20200;52.084;5.224;2023-01-20T00:15:51;150985.0;;;8.8;53.11
33913;BME280;20200;52.084;5.224;2023-01-20T00:17:27;150910.0;;;8.49;53.56
33913;BME280;20200;52.084;5.224;2023-01-20T00:20:39;150981.0;;;8.77;53.19
33913;BME280;20200;52.084;5.224;2023-01-20T00:22:16;151039.0;;;9.01;52.88
33913;BME280;20200;52.084;5.224;2023-01-20T00:23:53;151006.0;;;8.88;53.25
33913;BME280;20200;52.084;5.224;2023-01-20T00:27:07;150886.0;;;8.39;54.11
33913;BME280;20200;52.084;5.224;2023-01-20T00:28:43;151035.0;;;8.99;52.93
33913;BME280;20200;52.084;5.224;2023-01-20T00:30:21;151019.0;;;8.92;53.09
33913;BME280;20200;52.084;5.224;2023-01-20T00:31:57;150973.0;;;8.74;53.37
33913;BME280;20200;52.084;5.224;2023-01-20T00:35:10;151033.0;;;8.98;52.75
33913;BME280;20200;52.084;5.224;2023-01-20T00:36:47;151043.0;;;9.02;52.73
33913;BME280;20200;52.084;5.224;2023-01-20T00:38:23;151035.0;;;8.99;52.56
33913;BME280;20200;52.084;5.224;2023-01-20T00:41:35;151042.0;;;9.02;52.42
33913;BME280;20200;52.084;5.224;2023-01-20T00:43:12;150915.0;;;8.51;53.91
33913;BME280;20200;52.084;5.224;2023-01-20T00:44:48;151023.0;;;8.94;52.78
33913;BME280;20200;52.084;5.224;2023-01-20T00:48:01;151089.0;;;9.21;52.05
33913;BME280;20200;52.084;5.224;2023-01-20T00:49:37;151104.0;;;9.27;52.04
33913;BME280;20200;52.084;5.224;2023-01-20T00:51:13;151038.0;;;9.0;52.7
33913;BME280;20200;52.084;5.224;2023-01-20T00:52:50;151115.0;;;9.31;51.77
33913;BME280;20200;52.084;5.224;2023-01-20T00:56:03;151117.0;;;9.32;51.71
33913;BME280;20200;52.084;5.224;2023-01-20T00:57:40;151100.0;;;9.25;51.97
33913;BME280;20200;52.084;5.224;2023-01-20T00:59:15;151065.0;;;9.11;52.22
33913;BME280;20200;52.084;5.224;2023-01-20T01:02:30;151036.0;;;8.99;52.5
33913;BME280;20200;52.084;5.224;2023-01-20T01:04:06;151023.0;;;8.94;52.73
33913;BME280;20200;52.084;5.224;2023-01-20T01:05:43;150870.0;;;8.33;53.57
33913;BME280;20200;52.084;5.224;2023-01-20T01:08:56;150999.0;;;8.84;52.99
33913;BME280;20200;52.084;5.224;2023-01-20T01:10:32;151030.0;;;8.98;52.77
33913;BME280;20200;52.084;5.224;2023-01-20T01:12:10;151021.0;;;8.93;52.79
33913;BME280;20200;52.084;5.224;2023-01-20T01:13:46;151000.0;;;8.85;52.85
33913;BME280;20200;52.084;5.224;2023-01-20T01:16:58;151029.0;;;8.98;52.7
33913;BME280;20200;52.084;5.224;2023-01-20T01:18:34;151029.0;;;8.98;52.59
33913;BME280;20200;52.084;5.224;2023-01-20T01:20:11;150951.0;;;8.65;53.48
33913;BME280;20200;52.084;5.224;2023-01-20T01:23:25;150977.0;;;8.76;53.07
33913;BME280;20200;52.084;5.224;2023-01-20T01:25:01;151033.0;;;8.98;52.62
33913;BME280;20200;52.084;5.224;2023-01-20T01:26:38;150987.0;;;8.81;53.08
33913;BME280;20200;52.084;5.224;2023-01-20T01:29:50;150898.0;;;8.44;53.84
33913;BME280;20200;52.084;5.224;2023-01-20T01:31:26;150895.0;;;8.43;54.01
33913;BME280;20200;52.084;5.224;2023-01-20T01:33:03;150826.0;;;8.15;54.34
33913;BME280;20200;52.084;5.224;2023-01-20T01:34:38;150872.0;;;8.34;54.42
33913;BME280;20200;52.084;5.224;2023-01-20T01:37:52;150681.0;;;7.57;55.6
33913;BME280;20200;52.084;5.224;2023-01-20T01:39:28;150839.0;;;8.2;55.14
33913;BME280;20200;52.084;5.224;2023-01-20T01:41:04;150906.0;;;8.48;54.29
33913;BME280;20200;52.084;5.224;2023-01-20T01:44:18;150944.0;;;8.64;53.96
33913;BME280;20200;52.084;5.224;2023-01-20T01:45:56;150989.0;;;8.81;53.6
33913;BME280;20200;52.084;5.224;2023-01-20T01:47:33;150836.0;;;8.19;54.21
33913;BME280;20200;52.084;5.224;2023-01-20T01:50:55;150946.0;;;8.64;54.08
33913;BME280;20200;52.084;5.224;2023-01-20T01:52:33;150788.0;;;8.0;55.38
33913;BME280;20200;52.084;5.224;2023-01-20T01:54:13;150872.0;;;8.34;55.02
33913;BME280;20200;52.084;5.224;2023-01-20T01:55:54;150928.0;;;8.56;54.41
33913;BME280;20200;52.084;5.224;2023-01-20T01:59:11;150984.0;;;8.78;53.66
33913;BME280;20200;52.084;5.224;2023-01-20T02:00:49;150985.0;;;8.8;53.53
33913;BME280;20200;52.084;5.224;2023-01-20T02:02:26;151013.0;;;8.9;53.65
33913;BME280;20200;52.084;5.224;2023-01-20T02:04:04;150858.0;;;8.28;54.97
33913;BME280;20200;52.084;5.224;2023-01-20T02:07:24;151017.0;;;8.92;53.49
33913;BME280;20200;52.084;5.224;2023-01-20T02:09:03;150857.0;;;8.28;54.71
33913;BME280;20200;52.084;5.224;2023-01-20T02:10:40;150860.0;;;8.3;54.85
33913;BME280;20200;52.084;5.224;2023-01-20T02:12:17;150739.0;;;7.81;55.64
33913;BME280;20200;52.084;5.224;2023-01-20T02:15:39;150849.0;;;8.24;55.02
33913;BME280;20200;52.084;5.224;2023-01-20T02:17:24;151019.0;;;8.92;53.64
33913;BME280;20200;52.084;5.224;2023-01-20T02:19:16;151021.0;;;8.93;53.49
33913;BME280;20200;52.084;5.224;2023-01-20T02:21:32;150997.0;;;8.84;53.52
33913;BME280;20200;52.084;5.224;2023-01-20T02:24:23;151000.0;;;8.85;53.37
33913;BME280;20200;52.084;5.224;2023-01-20T02:26:40;150777.0;;;7.96;54.9
33913;BME280;20200;52.084;5.224;2023-01-20T02:32:53;150970.0;;;8.73;53.59
33913;BME280;20200;52.084;5.224;2023-01-20T02:34:36;150962.0;;;8.71;53.65
33913;BME280;20200;52.084;5.224;2023-01-20T02:36:25;150985.0;;;8.8;53.63
33913;BME280;20200;52.084;5.224;2023-01-20T02:38:11;151043.0;;;9.02;52.91
33913;BME280;20200;52.084;5.224;2023-01-20T02:39:55;151047.0;;;9.05;52.89
33913;BME280;20200;52.084;5.224;2023-01-20T02:41:48;151052.0;;;9.06;52.59
33913;BME280;20200;52.084;5.224;2023-01-20T02:45:15;151046.0;;;9.03;52.69
33913;BME280;20200;52.084;5.224;2023-01-20T02:46:58;151039.0;;;9.0;52.65
33913;BME280;20200;52.084;5.224;2023-01-20T02:48:41;151030.0;;;8.98;52.75
33913;BME280;20200;52.084;5.224;2023-01-20T02:50:24;151026.0;;;8.96;52.81
33913;BME280;20200;52.084;5.224;2023-01-20T02:52:09;150951.0;;;8.65;53.48
33913;BME280;20200;52.084;5.224;2023-01-20T02:55:33;150870.0;;;8.33;54.32
33913;BME280;20200;52.084;5.224;2023-01-20T02:57:16;150799.0;;;8.05;55.22
33913;BME280;20200;52.084;5.224;2023-01-20T02:59:00;150809.0;;;8.08;55.25
33913;BME280;20200;52.084;5.224;2023-01-20T03:00:41;150812.0;;;8.1;55.08
33913;BME280;20200;52.084;5.224;2023-01-20T03:04:02;150863.0;;;8.31;54.7
33913;BME280;20200;52.084;5.224;2023-01-20T03:05:44;150855.0;;;8.27;54.17
33913;BME280;20200;52.084;5.224;2023-01-20T03:07:26;150914.0;;;8.5;54.25
33913;BME280;20200;52.084;5.224;2023-01-20T03:09:07;150744.0;;;7.83;55.62
33913;BME280;20200;52.084;5.224;2023-01-20T03:12:28;150946.0;;;8.64;53.74
33913;BME280;20200;52.084;5.224;2023-01-20T03:14:12;150982.0;;;8.78;53.23
33913;BME280;20200;52.084;5.224;2023-01-20T03:15:54;150907.0;;;8.48;53.84
33913;BME280;20200;52.084;5.224;2023-01-20T03:17:33;150855.0;;;8.27;54.54
33913;BME280;20200;52.084;5.224;2023-01-20T03:19:10;150872.0;;;8.34;54.61
33913;BME280;20200;52.084;5.224;2023-01-20T03:22:22;150821.0;;;8.14;55.15
33913;BME280;20200;52.084;5.224;2023-01-20T03:24:00;150856.0;;;8.27;54.76
33913;BME280;20200;52.084;5.224;2023-01-20T03:25:39;150879.0;;;8.38;54.48
33913;BME280;20200;52.084;5.224;2023-01-20T03:28:53;150965.0;;;8.72;53.5
33913;BME280;20200;52.084;5.224;2023-01-20T03:30:30;150800.0;;;8.06;55.25
33913;BME280;20200;52.084;5.224;2023-01-20T03:32:08;150815.0;;;8.11;54.76
33913;BME280;20200;52.084;5.224;2023-01-20T03:35:25;150768.0;;;7.92;55.44
33913;BME280;20200;52.084;5.224;2023-01-20T03:37:03;150842.0;;;8.23;54.91
33913;BME280;20200;52.084;5.224;2023-01-20T03:38:39;150841.0;;;8.22;55.07
33913;BME280;20200;52.084;5.224;2023-01-20T03:40:17;150895.0;;;8.43;54.19
33913;BME280;20200;52.084;5.224;2023-01-20T03:43:44;150764.0;;;7.91;55.51
33913;BME280;20200;52.084;5.224;2023-01-20T03:45:30;150827.0;;;8.16;54.96
33913;BME280;20200;52.084;5.224;2023-01-20T03:47:17;150881.0;;;8.38;54.43
33913;BME280;20200;52.084;5.224;2023-01-20T03:49:06;150786.0;;;7.99;55.31
33913;BME280;20200;52.084;5.224;2023-01-20T03:50:52;150827.0;;;8.16;54.62
33913;BME280;20200;52.084;5.224;2023-01-20T03:54:17;150864.0;;;8.31;54.61
33913;BME280;20200;52.084;5.224;2023-01-20T03:56:02;150878.0;;;8.36;54.39
33913;BME280;20200;52.084;5.224;2023-01-20T03:57:45;150783.0;;;7.98;55.34
33913;BME280;20200;52.084;5.224;2023-01-20T03:59:31;150828.0;;;8.16;55.02
33913;BME280;20200;52.084;5.224;2023-01-20T04:01:10;150841.0;;;8.22;55.0
33913;BME280;20200;52.084;5.224;2023-01-20T04:04:25;150885.0;;;8.39;54.25
33913;BME280;20200;52.084;5.224;2023-01-20T04:06:05;150853.0;;;8.26;54.89
33913;BME280;20200;52.084;5.224;2023-01-20T04:07:44;150778.0;;;7.96;55.55
33913;BME280;20200;52.084;5.224;2023-01-20T04:11:08;150692.0;;;7.62;56.57
33913;BME280;20200;52.084;5.224;2023-01-20T04:12:45;150829.0;;;8.17;55.47
33913;BME280;20200;52.084;5.224;2023-01-20T04:14:21;150653.0;;;7.46;56.93
33913;BME280;20200;52.084;5.224;2023-01-20T04:15:58;150788.0;;;8.0;55.79
33913;BME280;20200;52.084;5.224;2023-01-20T04:19:13;150822.0;;;8.14;55.28
33913;BME280;20200;52.084;5.224;2023-01-20T04:20:51;150617.0;;;7.32;57.46
33913;BME280;20200;52.084;5.224;2023-01-20T04:22:35;150686.0;;;7.59;56.99
33913;BME280;20200;52.084;5.224;2023-01-20T04:24:20;150820.0;;;8.14;55.35
33913;BME280;20200;52.084;5.224;2023-01-20T04:27:36;150806.0;;;8.07;55.33
33913;BME280;20200;52.084;5.224;2023-01-20T04:29:12;150799.0;;;8.06;55.28
33913;BME280;20200;52.084;5.224;2023-01-20T04:30:49;150743.0;;;7.82;55.81
33913;BME280;20200;52.084;5.224;2023-01-20T04:32:26;150610.0;;;7.29;57.24
33913;BME280;20200;52.084;5.224;2023-01-20T04:35:40;150736.0;;;7.79;56.38
33913;BME280;20200;52.084;5.224;2023-01-20T04:37:16;150748.0;;;7.84;56.0
33913;BME280;20200;52.084;5.224;2023-01-20T04:38:52;150841.0;;;8.22;54.83
33913;BME280;20200;52.084;5.224;2023-01-20T04:42:05;150750.0;;;7.85;55.64
33913;BME280;20200;52.084;5.224;2023-01-20T04:43:42;150723.0;;;7.74;56.05
33913;BME280;20200;52.084;5.224;2023-01-20T04:45:19;150647.0;;;7.44;57.03
33913;BME280;20200;52.084;5.224;2023-01-20T04:48:33;150664.0;;;7.5;56.82
33913;BME280;20200;52.084;5.224;2023-01-20T04:50:10;150725.0;;;7.75;56.38
33913;BME280;20200;52.084;5.224;2023-01-20T04:51:47;150653.0;;;7.46;56.7
33913;BME280;20200;52.084;5.224;2023-01-20T04:53:23;150591.0;;;7.21;57.61
33913;BME280;20200;52.084;5.224;2023-01-20T04:56:37;150686.0;;;7.59;57.04
33913;BME280;20200;52.084;5.224;2023-01-20T04:58:14;150634.0;;;7.39;57.35
33913;BME280;20200;52.084;5.224;2023-01-20T04:59:50;150615.0;;;7.31;57.51
33913;BME280;20200;52.084;5.224;2023-01-20T05:03:02;150734.0;;;7.79;56.3
33913;BME280;20200;52.084;5.224;2023-01-20T05:04:39;150634.0;;;7.39;57.45
33913;BME280;20200;52.084;5.224;2023-01-20T05:06:16;150602.0;;;7.26;57.51
33913;BME280;20200;52.084;5.224;2023-01-20T05:09:30;150664.0;;;7.51;57.14
33913;BME280;20200;52.084;5.224;2023-01-20T05:11:06;150767.0;;;7.92;55.96
33913;BME280;20200;52.084;5.224;2023-01-20T05:12:43;150665.0;;;7.51;56.7
33913;BME280;20200;52.084;5.224;2023-01-20T05:14:19;150536.0;;;6.99;58.16
33913;BME280;20200;52.084;5.224;2023-01-20T05:17:32;150665.0;;;7.51;57.25
33913;BME280;20200;52.084;5.224;2023-01-20T05:19:09;150564.0;;;7.11;57.82
33913;BME280;20200;52.084;5.224;2023-01-20T05:20:47;150703.0;;;7.66;56.85
33913;BME280;20200;52.084;5.224;2023-01-20T05:24:00;150672.0;;;7.54;57.19
33913;BME280;20200;52.084;5.224;2023-01-20T05:25:36;150671.0;;;7.53;56.89
33913;BME280;20200;52.084;5.224;2023-01-20T05:27:12;150748.0;;;7.84;55.89
33913;BME280;20200;52.084;5.224;2023-01-20T05:30:24;150823.0;;;8.14;55.29
33913;BME280;20200;52.084;5.224;2023-01-20T05:32:01;150843.0;;;8.23;55.04
33913;BME280;20200;52.084;5.224;2023-01-20T05:33:38;150805.0;;;8.07;55.15
33913;BME280;20200;52.084;5.224;2023-01-20T05:35:15;150830.0;;;8.17;55.2
33913;BME280;20200;52.084;5.224;2023-01-20T05:38:29;150762.0;;;7.9;55.6
33913;BME280;20200;52.084;5.224;2023-01-20T05:44:14;150811.0;;;8.09;55.14
33913;BME280;20200;52.084;5.224;2023-01-20T05:45:50;150806.0;;;8.07;55.31
33913;BME280;20200;52.084;5.224;2023-01-20T05:49:04;150750.0;;;7.85;55.36
33913;BME280;20200;52.084;5.224;2023-01-20T05:50:41;150791.0;;;8.01;55.56
33913;BME280;20200;52.084;5.224;2023-01-20T05:52:17;150706.0;;;7.68;56.04
33913;BME280;20200;52.084;5.224;2023-01-20T05:55:30;150758.0;;;7.88;55.64
33913;BME280;20200;52.084;5.224;2023-01-20T05:57:06;150754.0;;;7.87;55.66
33913;BME280;20200;52.084;5.224;2023-01-20T05:58:42;150774.0;;;7.94;55.72
33913;BME280;20200;52.084;5.224;2023-01-20T06:00:19;150761.0;;;7.89;55.55
33913;BME280;20200;52.084;5.224;2023-01-20T06:03:32;150785.0;;;7.99;55.44
33913;BME280;20200;52.084;5.224;2023-01-20T06:05:09;150709.0;;;7.69;56.26
33913;BME280;20200;52.084;5.224;2023-01-20T06:06:45;150842.0;;;8.23;54.79
33913;BME280;20200;52.084;5.224;2023-01-20T06:09:57;150769.0;;;7.94;55.7
33913;BME280;20200;52.084;5.224;2023-01-20T06:11:33;150804.0;;;8.07;55.13
33913;BME280;20200;52.084;5.224;2023-01-20T06:13:09;150823.0;;;8.14;55.0
33913;BME280;20200;52.084;5.224;2023-01-20T06:16:22;150848.0;;;8.24;54.93
33913;BME280;20200;52.084;5.224;2023-01-20T06:17:58;150832.0;;;8.18;54.72
33913;BME280;20200;52.084;5.224;2023-01-20T06:19:34;150793.0;;;8.02;55.34
33913;BME280;20200;52.084;5.224;2023-01-20T06:22:47;150795.0;;;8.03;55.51
33913;BME280;20200;52.084;5.224;2023-01-20T06:24:23;150876.0;;;8.35;54.59
33913;BME280;20200;52.084;5.224;2023-01-20T06:26:01;150731.0;;;7.77;56.04
33913;BME280;20200;52.084;5.224;2023-01-20T06:27:38;150806.0;;;8.07;55.4
33913;BME280;20200;52.084;5.224;2023-01-20T06:30:50;150874.0;;;8.35;54.68
33913;BME280;20200;52.084;5.224;2023-01-20T06:32:26;150927.0;;;8.56;53.94
33913;BME280;20200;52.084;5.224;2023-01-20T06:34:02;150912.0;;;8.5;54.11
33913;BME280;20200;52.084;5.224;2023-01-20T06:37:14;150906.0;;;8.48;54.05
33913;BME280;20200;52.084;5.224;2023-01-20T06:38:52;150916.0;;;8.51;53.79
33913;BME280;20200;52.084;5.224;2023-01-20T06:40:28;150721.0;;;7.73;55.95
33913;BME280;20200;52.084;5.224;2023-01-20T06:43:41;150833.0;;;8.18;55.15
33913;BME280;20200;52.084;5.224;2023-01-20T06:45:18;150823.0;;;8.14;54.88
33913;BME280;20200;52.084;5.224;2023-01-20T06:46:57;150890.0;;;8.41;54.42
33913;BME280;20200;52.084;5.224;2023-01-20T06:48:33;150942.0;;;8.63;53.94
33913;BME280;20200;52.084;5.224;2023-01-20T06:51:47;150912.0;;;8.5;54.06
33913;BME280;20200;52.084;5.224;2023-01-20T06:53:24;150951.0;;;8.65;53.7
33913;BME280;20200;52.084;5.224;2023-01-20T06:55:00;150923.0;;;8.55;53.96
33913;BME280;20200;52.084;5.224;2023-01-20T06:58:12;150884.0;;;8.39;54.3
33913;BME280;20200;52.084;5.224;2023-01-20T06:59:48;150897.0;;;8.44;53.97
33913;BME280;20200;52.084;5.224;2023-01-20T07:01:26;150834.0;;;8.18;54.8
33913;BME280;20200;52.084;5.224;2023-01-20T07:03:04;150846.0;;;8.23;54.67
33913;BME280;20200;52.084;5.224;2023-01-20T07:06:23;150937.0;;;8.6;53.92
33913;BME280;20200;52.084;5.224;2023-01-20T07:08:01;150950.0;;;8.65;53.91
33913;BME280;20200;52.084;5.224;2023-01-20T07:09:38;150885.0;;;8.39;54.49
33913;BME280;20200;52.084;5.224;2023-01-20T07:12:50;150907.0;;;8.48;54.25
33913;BME280;20200;52.084;5.224;2023-01-20T07:14:26;150995.0;;;8.83;53.22
33913;BME280;20200;52.084;5.224;2023-01-20T07:16:02;150907.0;;;8.48;54.26
33913;BME280;20200;52.084;5.224;2023-01-20T07:19:14;151021.0;;;8.93;52.89
33913;BME280;20200;52.084;5.224;2023-01-20T07:20:52;150990.0;;;8.81;53.13
33913;BME280;20200;52.084;5.224;2023-01-20T07:22:29;150923.0;;;8.55;53.67
33913;BME280;20200;52.084;5.224;2023-01-20T07:24:05;150768.0;;;7.92;55.27
33913;BME280;20200;52.084;5.224;2023-01-20T07:27:18;150916.0;;;8.51;54.37
33913;BME280;20200;52.084;5.224;2023-01-20T07:28:56;150845.0;;;8.23;54.31
33913;BME280;20200;52.084;5.224;2023-01-20T07:30:33;150878.0;;;8.36;54.28
33913;BME280;20200;52.084;5.224;2023-01-20T07:33:45;151007.0;;;8.89;53.19
33913;BME280;20200;52.084;5.224;2023-01-20T07:35:22;151009.0;;;8.89;53.04
33913;BME280;20200;52.084;5.224;2023-01-20T07:37:00;150925.0;;;8.56;53.56
33913;BME280;20200;52.084;5.224;2023-01-20T07:38:37;150907.0;;;8.48;54.3
33913;BME280;20200;52.084;5.224;2023-01-20T07:41:50;150813.0;;;8.1;55.36
33913;BME280;20200;52.084;5.224;2023-01-20T07:43:26;150867.0;;;8.32;54.49
33913;BME280;20200;52.084;5.224;2023-01-20T07:45:04;150893.0;;;8.42;54.56
33913;BME280;20200;52.084;5.224;2023-01-20T07:48:16;150917.0;;;8.52;54.23
33913;BME280;20200;52.084;5.224;2023-01-20T07:49:52;150920.0;;;8.53;54.08
33913;BME280;20200;52.084;5.224;2023-01-20T07:51:28;150894.0;;;8.43;54.15
33913;BME280;20200;52.084;5.224;2023-01-20T07:54:42;150983.0;;;8.78;53.62
33913;BME280;20200;52.084;5.224;2023-01-20T07:56:20;151027.0;;;8.97;53.27
33913;BME280;20200;52.084;5.224;2023-01-20T07:58:01;150930.0;;;8.57;54.13
33913;BME280;20200;52.084;5.224;2023-01-20T07:59:37;150899.0;;;8.45;54.62
33913;BME280;20200;52.084;5.224;2023-01-20T08:02:53;150900.0;;;8.45;54.38
33913;BME280;20200;52.084;5.224;2023-01-20T08:04:29;150932.0;;;8.58;54.12
33913;BME280;20200;52.084;5.224;2023-01-20T08:06:07;150900.0;;;8.45;54.69
33913;BME280;20200;52.084;5.224;2023-01-20T08:09:26;150942.0;;;8.63;54.17
33913;BME280;20200;52.084;5.224;2023-01-20T08:11:04;150932.0;;;8.58;54.18
33913;BME280;20200;52.084;5.224;2023-01-20T08:12:41;150920.0;;;8.53;54.44
33913;BME280;20200;52.084;5.224;2023-01-20T08:14:17;150921.0;;;8.53;54.24
33913;BME280;20200;52.084;5.224;2023-01-20T08:17:29;150857.0;;;8.28;54.88
33913;BME280;20200;52.084;5.224;2023-01-20T08:19:05;150859.0;;;8.3;55.26
33913;BME280;20200;52.084;5.224;2023-01-20T08:20:41;150846.0;;;8.23;55.49
33913;BME280;20200;52.084;5.224;2023-01-20T08:23:54;150793.0;;;8.02;55.88
33913;BME280;20200;52.084;5.224;2023-01-20T08:25:31;150849.0;;;8.24;55.61
33913;BME280;20200;52.084;5.224;2023-01-20T08:27:07;150896.0;;;8.43;55.08
33913;BME280;20200;52.084;5.224;2023-01-20T08:30:19;150876.0;;;8.35;55.05
33913;BME280;20200;52.084;5.224;2023-01-20T08:31:57;150748.0;;;7.84;56.23
33913;BME280;20200;52.084;5.224;2023-01-20T08:33:34;150776.0;;;7.95;56.33
33913;BME280;20200;52.084;5.224;2023-01-20T08:35:10;150831.0;;;8.17;55.82
33913;BME280;20200;52.084;5.224;2023-01-20T08:38:24;150902.0;;;8.47;54.87
33913;BME280;20200;52.084;5.224;2023-01-20T08:40:00;150901.0;;;8.45;54.75
33913;BME280;20200;52.084;5.224;2023-01-20T08:41:38;150974.0;;;8.74;54.38
33913;BME280;20200;52.084;5.224;2023-01-20T08:44:53;150979.0;;;8.76;54.15
33913;BME280;20200;52.084;5.224;2023-01-20T08:46:30;150776.0;;;7.95;56.15
33913;BME280;20200;52.084;5.224;2023-01-20T08:48:08;150768.0;;;7.92;55.81
33913;BME280;20200;52.084;5.224;2023-01-20T08:49:44;150814.0;;;8.11;56.01
33913;BME280;20200;52.084;5.224;2023-01-20T08:53:02;150861.0;;;8.3;55.34
33913;BME280;20200;52.084;5.224;2023-01-20T08:54:38;150963.0;;;8.71;54.6
33913;BME280;20200;52.084;5.224;2023-01-20T08:56:15;150882.0;;;8.39;55.06
33913;BME280;20200;52.084;5.224;2023-01-20T08:59:27;150964.0;;;8.71;54.48
33913;BME280;20200;52.084;5.224;2023-01-20T09:01:07;150992.0;;;8.82;54.0
33913;BME280;20200;52.084;5.224;2023-01-20T09:02:43;150925.0;;;8.56;54.74
33913;BME280;20200;52.084;5.224;2023-01-20T09:06:00;150994.0;;;8.83;54.02
33913;BME280;20200;52.084;5.224;2023-01-20T09:07:37;150973.0;;;8.74;54.19
33913;BME280;20200;52.084;5.224;2023-01-20T09:09:15;150937.0;;;8.6;54.54
33913;BME280;20200;52.084;5.224;2023-01-20T09:10:53;150938.0;;;8.6;54.45
33913;BME280;20200;52.084;5.224;2023-01-20T09:14:12;150959.0;;;8.69;54.49
33913;BME280;20200;52.084;5.224;2023-01-20T09:15:50;150912.0;;;8.5;54.84
33913;BME280;20200;52.084;5.224;2023-01-20T09:17:27;151007.0;;;8.89;54.05
33913;BME280;20200;52.084;5.224;2023-01-20T09:19:03;150964.0;;;8.71;54.52
33913;BME280;20200;52.084;5.224;2023-01-20T09:22:15;150923.0;;;8.55;54.86
33913;BME280;20200;52.084;5.224;2023-01-20T09:23:51;150923.0;;;8.55;54.8
33913;BME280;20200;52.084;5.224;2023-01-20T09:25:27;150979.0;;;8.76;54.44
33913;BME280;20200;52.084;5.224;2023-01-20T09:28:41;150913.0;;;8.5;55.07
33913;BME280;20200;52.084;5.224;2023-01-20T09:30:17;150929.0;;;8.57;54.94
33913;BME280;20200;52.084;5.224;2023-01-20T09:31:57;150980.0;;;8.77;54.37
33913;BME280;20200;52.084;5.224;2023-01-20T09:35:14;151004.0;;;8.88;54.0
33913;BME280;20200;52.084;5.224;2023-01-20T09:36:50;151084.0;;;9.18;53.29
33913;BME280;20200;52.084;5.224;2023-01-20T09:45:27;150965.0;;;8.72;54.32
33913;BME280;20200;52.084;5.224;2023-01-20T09:47:27;150946.0;;;8.64;54.2
33913;BME280;20200;52.084;5.224;2023-01-20T09:53:27;151062.0;;;9.09;53.02
33913;BME280;20200;52.084;5.224;2023-01-20T09:55:14;151137.0;;;9.4;52.31
33913;BME280;20200;52.084;5.224;2023-01-20T09:56:59;151123.0;;;9.34;52.61
33913;BME280;20200;52.084;5.224;2023-01-20T10:00:26;151113.0;;;9.31;52.58
33913;BME280;20200;52.084;5.224;2023-01-20T10:02:10;150993.0;;;8.82;53.72
33913;BME280;20200;52.084;5.224;2023-01-20T10:03:55;151056.0;;;9.07;53.11
33913;BME280;20200;52.084;5.224;2023-01-20T10:05:37;151125.0;;;9.35;52.4
33913;BME280;20200;52.084;5.224;2023-01-20T10:07:20;151040.0;;;9.01;52.43
33913;BME280;20200;52.084;5.224;2023-01-20T10:10:47;151107.0;;;9.28;52.43
33913;BME280;20200;52.084;5.224;2023-01-20T10:12:29;151093.0;;;9.23;52.6
33913;BME280;20200;52.084;5.224;2023-01-20T10:14:14;151141.0;;;9.41;52.11
33913;BME280;20200;52.084;5.224;2023-01-20T10:15:55;150999.0;;;8.85;52.47
33913;BME280;20200;52.084;5.224;2023-01-20T10:19:18;151145.0;;;9.43;51.84
33913;BME280;20200;52.084;5.224;2023-01-20T10:21:00;151141.0;;;9.41;51.78
33913;BME280;20200;52.084;5.224;2023-01-20T10:22:50;151121.0;;;9.33;51.98
33913;BME280;20200;52.084;5.224;2023-01-20T10:24:30;151088.0;;;9.21;52.24
33913;BME280;20200;52.084;5.224;2023-01-20T10:26:12;151030.0;;;8.98;52.75
33913;BME280;20200;52.084;5.224;2023-01-20T10:29:35;151062.0;;;9.1;52.62
33913;BME280;20200;52.084;5.224;2023-01-20T10:31:16;151100.0;;;9.25;52.26
33913;BME280;20200;52.084;5.224;2023-01-20T10:32:59;151109.0;;;9.28;51.99
33913;BME280;20200;52.084;5.224;2023-01-20T10:34:44;151110.0;;;9.3;51.89
33913;BME280;20200;52.084;5.224;2023-01-20T10:38:06;151198.0;;;9.64;51.32
33913;BME280;20200;52.084;5.224;2023-01-20T10:39:48;151079.0;;;9.17;52.15
33913;BME280;20200;52.084;5.224;2023-01-20T10:41:32;151153.0;;;9.47;51.6
33913;BME280;20200;52.084;5.224;2023-01-20T10:43:13;151170.0;;;9.53;51.42
33913;BME280;20200;52.084;5.224;2023-01-20T10:48:39;151160.0;;;9.49;51.51
33913;BME280;20200;52.084;5.224;2023-01-20T10:50:33;151161.0;;;9.49;51.52
33913;BME280;20200;52.084;5.224;2023-01-20T10:52:32;151171.0;;;9.53;51.33
33913;BME280;20200;52.084;5.224;2023-01-20T10:54:24;151112.0;;;9.31;52.1
33913;BME280;20200;52.084;5.224;2023-01-20T10:56:18;151158.0;;;9.48;51.59
33913;BME280;20200;52.084;5.224;2023-01-20T10:58:13;151144.0;;;9.42;51.69
33913;BME280;20200;52.084;5.224;2023-01-20T10:59:53;151174.0;;;9.55;51.32
33913;BME280;20200;52.084;5.224;2023-01-20T11:01:31;151143.0;;;9.42;51.58
33913;BME280;20200;52.084;5.224;2023-01-20T11:04:57;151174.0;;;9.55;51.58
33913;BME280;20200;52.084;5.224;2023-01-20T11:06:37;151148.0;;;9.44;51.47
33913;BME280;20200;52.084;5.224;2023-01-20T11:08:15;151112.0;;;9.31;51.95
33913;BME280;20200;52.084;5.224;2023-01-20T11:11:30;151134.0;;;9.39;51.91
33913;BME280;20200;52.084;5.224;2023-01-20T11:13:09;151110.0;;;9.3;51.87
33913;BME280;20200;52.084;5.224;2023-01-20T11:16:25;151111.0;;;9.3;51.92
33913;BME280;20200;52.084;5.224;2023-01-20T11:20:04;151088.0;;;9.21;52.34
33913;BME280;20200;52.084;5.224;2023-01-20T11:21:42;151097.0;;;9.24;52.25
33913;BME280;20200;52.084;5.224;2023-01-20T11:23:20;151099.0;;;9.24;52.27
33913;BME280;20200;52.084;5.224;2023-01-20T11:24:59;151089.0;;;9.21;52.2
33913;BME280;20200;52.084;5.224;2023-01-20T11:28:16;151031.0;;;8.98;52.75
33913;BME280;20200;52.084;5.224;2023-01-20T11:29:56;150960.0;;;8.69;53.48
33913;BME280;20200;52.084;5.224;2023-01-20T11:31:36;150955.0;;;8.67;53.78
33913;BME280;20200;52.084;5.224;2023-01-20T11:33:18;150996.0;;;8.83;53.34
33913;BME280;20200;52.084;5.224;2023-01-20T11:36:32;151059.0;;;9.08;53.03
33913;BME280;20200;52.084;5.224;2023-01-20T11:38:26;151076.0;;;9.15;52.89